tititudorancea.com
Station Historical Data
Daily Summary for February 13, 2019 Units:  Both    English   Metric
« Previous Day
Next Day »
Daily Weekly Monthly Yearly Custom
  High: Low: Average:
Temperature: TemperatureF °F /  -17.8 °C 48.6 °F /  9.2 °C 55.4 °F /  13 °C
Dew Point: DewpointF °F /  -17.8 °C 36.5 °F /  2.5 °C 39.9 °F /  4.4 °C
Humidity: Humidity % 35 % 57 %
Wind Speed: WindSpeedMPH mph /  0 km/h - 8.9 mph /  14.3 km/h
Wind Gust: WindSpeedGustMPH mph /  0 km/h - -
Wind:- - WSW
Pressure: PressureIn in /  0 hPa 29.62 in /  1002.9 hPa -
Precipitation: 0.00 in /  0 mm    
Historical Graphs
 
 
Ararat weather Find more about Weather in Ararat, AU


 



 


Tabular Data for February 13, 2019
Time Temperature Dew Point Pressure Wind Wind Speed Wind Gust Humidity Rainfall Rate (Hourly)
TemperatureF °F /  -17.8 °C DewpointF °F /  -17.8 °C PressureIn in /  0 hPa Calm     Humidity % HourlyPrecipIn in /  0 mm
00:00 52.6 °F /  11.4 °C 36.9 °F /  2.7 °C 29.62 in /  1002.9 hPa West 3.0 mph /  4.8 km/h 7.0 mph /  11.3 km/h 55 % 0.00 in /  0 mm
00:04 52.0 °F /  11.1 °C 38.1 °F /  3.4 °C 29.66 in /  1004.3 hPa West 11.5 mph /  18.5 km/h 4.1 mph /  6.6 km/h 59 % 0.00 in /  0 mm
00:05 52.5 °F /  11.4 °C 37.2 °F /  2.9 °C 29.63 in /  1003.3 hPa West 6.0 mph /  9.7 km/h 8.0 mph /  12.9 km/h 56 % 0.00 in /  0 mm
00:09 51.8 °F /  11 °C 38.3 °F /  3.5 °C 29.66 in /  1004.3 hPa West 5.0 mph /  8 km/h 4.4 mph /  7.1 km/h 60 % 0.00 in /  0 mm
00:10 52.5 °F /  11.4 °C 37.2 °F /  2.9 °C 29.63 in /  1003.3 hPa West 3.0 mph /  4.8 km/h 8.0 mph /  12.9 km/h 56 % 0.00 in /  0 mm
00:14 51.7 °F /  10.9 °C 38.3 °F /  3.5 °C 29.66 in /  1004.3 hPa West 5.8 mph /  9.3 km/h 3.9 mph /  6.3 km/h 60 % 0.00 in /  0 mm
00:15 52.3 °F /  11.3 °C 37.5 °F /  3.1 °C 29.63 in /  1003.3 hPa West 3.0 mph /  4.8 km/h 5.0 mph /  8 km/h 57 % 0.00 in /  0 mm
00:19 51.7 °F /  10.9 °C 38.3 °F /  3.5 °C 29.66 in /  1004.3 hPa West 5.0 mph /  8 km/h 2.7 mph /  4.3 km/h 60 % 0.00 in /  0 mm
00:20 52.0 °F /  11.1 °C 37.7 °F /  3.2 °C 29.63 in /  1003.3 hPa West 2.0 mph /  3.2 km/h 4.0 mph /  6.4 km/h 58 % 0.00 in /  0 mm
00:24 51.7 °F /  10.9 °C 38.3 °F /  3.5 °C 29.66 in /  1004.3 hPa West 4.0 mph /  6.4 km/h 3.6 mph /  5.8 km/h 60 % 0.00 in /  0 mm
00:25 51.8 °F /  11 °C 37.5 °F /  3.1 °C 29.64 in /  1003.6 hPa West 2.0 mph /  3.2 km/h 6.0 mph /  9.7 km/h 58 % 0.00 in /  0 mm
00:29 51.6 °F /  10.9 °C 38.2 °F /  3.4 °C 29.66 in /  1004.3 hPa West 4.0 mph /  6.4 km/h 2.1 mph /  3.4 km/h 60 % 0.00 in /  0 mm
00:30 51.7 °F /  10.9 °C 37.4 °F /  3 °C 29.64 in /  1003.6 hPa West 3.0 mph /  4.8 km/h 4.0 mph /  6.4 km/h 58 % 0.00 in /  0 mm
00:34 51.5 °F /  10.8 °C 38.1 °F /  3.4 °C 29.66 in /  1004.3 hPa West 3.5 mph /  5.6 km/h 1.7 mph /  2.7 km/h 60 % 0.00 in /  0 mm
00:35 51.6 °F /  10.9 °C 37.7 °F /  3.2 °C 29.64 in /  1003.6 hPa West 3.0 mph /  4.8 km/h 6.0 mph /  9.7 km/h 59 % 0.00 in /  0 mm
00:39 51.4 °F /  10.8 °C 38.0 °F /  3.3 °C 29.67 in /  1004.6 hPa West 2.3 mph /  3.7 km/h 1.5 mph /  2.4 km/h 60 % 0.00 in /  0 mm
00:40 51.5 °F /  10.8 °C 37.6 °F /  3.1 °C 29.64 in /  1003.6 hPa West 2.0 mph /  3.2 km/h 5.0 mph /  8 km/h 59 % 0.00 in /  0 mm
00:44 51.4 °F /  10.8 °C 38.4 °F /  3.6 °C 29.67 in /  1004.6 hPa West 5.0 mph /  8 km/h 5.2 mph /  8.4 km/h 61 % 0.00 in /  0 mm
00:45 51.3 °F /  10.7 °C 37.9 °F /  3.3 °C 29.65 in /  1003.9 hPa West 3.0 mph /  4.8 km/h 4.0 mph /  6.4 km/h 60 % 0.00 in /  0 mm
00:49 51.6 °F /  10.9 °C 38.6 °F /  3.7 °C 29.67 in /  1004.6 hPa West 5.8 mph /  9.3 km/h 4.8 mph /  7.7 km/h 61 % 0.00 in /  0 mm
00:50 51.0 °F /  10.6 °C 38.0 °F /  3.3 °C 29.65 in /  1003.9 hPa West 3.0 mph /  4.8 km/h 4.0 mph /  6.4 km/h 61 % 0.00 in /  0 mm
00:54 51.8 °F /  11 °C 38.8 °F /  3.8 °C 29.67 in /  1004.6 hPa West 10.4 mph /  16.7 km/h 7.4 mph /  11.9 km/h 61 % 0.00 in /  0 mm
00:55 50.9 °F /  10.5 °C 38.3 °F /  3.5 °C 29.65 in /  1003.9 hPa West 3.0 mph /  4.8 km/h 4.0 mph /  6.4 km/h 62 % 0.00 in /  0 mm
00:59 51.9 °F /  11.1 °C 38.9 °F /  3.8 °C 29.67 in /  1004.6 hPa West 13.8 mph /  22.2 km/h 8.3 mph /  13.4 km/h 61 % 0.00 in /  0 mm
01:00 50.5 °F /  10.3 °C 38.0 °F /  3.3 °C 29.65 in /  1003.9 hPa West 3.0 mph /  4.8 km/h 4.0 mph /  6.4 km/h 62 % 0.00 in /  0 mm
01:04 52.1 °F /  11.2 °C 39.1 °F /  3.9 °C 29.67 in /  1004.6 hPa West 5.8 mph /  9.3 km/h 3.5 mph /  5.6 km/h 61 % 0.00 in /  0 mm
01:05 50.5 °F /  10.3 °C 38.0 °F /  3.3 °C 29.66 in /  1004.3 hPa West 3.0 mph /  4.8 km/h 5.0 mph /  8 km/h 62 % 0.00 in /  0 mm
01:09 52.0 °F /  11.1 °C 39.0 °F /  3.9 °C 29.68 in /  1005 hPa WNW 9.2 mph /  14.8 km/h 5.4 mph /  8.7 km/h 61 % 0.00 in /  0 mm
01:10 50.8 °F /  10.4 °C 37.8 °F /  3.2 °C 29.66 in /  1004.3 hPa West 1.0 mph /  1.6 km/h 5.0 mph /  8 km/h 61 % 0.00 in /  0 mm
01:14 52.0 °F /  11.1 °C 39.0 °F /  3.9 °C 29.67 in /  1004.6 hPa WNW 11.5 mph /  18.5 km/h 6.5 mph /  10.5 km/h 61 % 0.00 in /  0 mm
01:15 51.0 °F /  10.6 °C 38.0 °F /  3.3 °C 29.66 in /  1004.3 hPa West 5.0 mph /  8 km/h 9.0 mph /  14.5 km/h 61 % 0.00 in /  0 mm
01:19 51.9 °F /  11.1 °C 39.3 °F /  4.1 °C 29.68 in /  1005 hPa West 6.0 mph /  9.7 km/h 3.4 mph /  5.5 km/h 62 % 0.00 in /  0 mm
01:20 51.6 °F /  10.9 °C 37.7 °F /  3.2 °C 29.66 in /  1004.3 hPa West 6.0 mph /  9.7 km/h 12.0 mph /  19.3 km/h 59 % 0.00 in /  0 mm
01:24 51.6 °F /  10.9 °C 39.4 °F /  4.1 °C 29.68 in /  1005 hPa West 11.5 mph /  18.5 km/h 6.5 mph /  10.5 km/h 63 % 0.00 in /  0 mm
01:25 51.7 °F /  10.9 °C 37.4 °F /  3 °C 29.66 in /  1004.3 hPa WSW 3.0 mph /  4.8 km/h 6.0 mph /  9.7 km/h 58 % 0.00 in /  0 mm
01:29 51.5 °F /  10.8 °C 39.3 °F /  4.1 °C 29.68 in /  1005 hPa West 8.1 mph /  13 km/h 6.8 mph /  10.9 km/h 63 % 0.00 in /  0 mm
01:30 51.6 °F /  10.9 °C 37.3 °F /  2.9 °C 29.66 in /  1004.3 hPa WSW 3.0 mph /  4.8 km/h 7.0 mph /  11.3 km/h 58 % 0.00 in /  0 mm
01:34 51.4 °F /  10.8 °C 39.2 °F /  4 °C 29.68 in /  1005 hPa West 6.0 mph /  9.7 km/h 5.9 mph /  9.5 km/h 63 % 0.00 in /  0 mm
01:35 51.7 °F /  10.9 °C 37.4 °F /  3 °C 29.66 in /  1004.3 hPa WSW 3.0 mph /  4.8 km/h 8.0 mph /  12.9 km/h 58 % 0.00 in /  0 mm
01:39 51.3 °F /  10.7 °C 39.1 °F /  3.9 °C 29.68 in /  1005 hPa West 9.0 mph /  14.5 km/h 4.9 mph /  7.9 km/h 63 % 0.00 in /  0 mm
01:40 51.7 °F /  10.9 °C 37.4 °F /  3 °C 29.66 in /  1004.3 hPa WSW 3.0 mph /  4.8 km/h 9.0 mph /  14.5 km/h 58 % 0.00 in /  0 mm
01:44 51.3 °F /  10.7 °C 39.5 °F /  4.2 °C 29.68 in /  1005 hPa West 9.2 mph /  14.8 km/h 6.7 mph /  10.8 km/h 64 % 0.00 in /  0 mm
01:45 51.6 °F /  10.9 °C 37.3 °F /  2.9 °C 29.66 in /  1004.3 hPa WSW 5.0 mph /  8 km/h 8.0 mph /  12.9 km/h 58 % 0.00 in /  0 mm
01:49 51.1 °F /  10.6 °C 39.3 °F /  4.1 °C 29.68 in /  1005 hPa West 8.1 mph /  13 km/h 4.3 mph /  6.9 km/h 64 % 0.00 in /  0 mm
01:50 51.7 °F /  10.9 °C 37.4 °F /  3 °C 29.66 in /  1004.3 hPa WSW 9.0 mph /  14.5 km/h 14.0 mph /  22.5 km/h 58 % 0.00 in /  0 mm
01:54 51.1 °F /  10.6 °C 39.7 °F /  4.3 °C 29.68 in /  1005 hPa West 6.9 mph /  11.1 km/h 5.1 mph /  8.2 km/h 65 % 0.00 in /  0 mm
01:55 52.0 °F /  11.1 °C 37.7 °F /  3.2 °C 29.66 in /  1004.3 hPa West 3.0 mph /  4.8 km/h 8.0 mph /  12.9 km/h 58 % 0.00 in /  0 mm
01:59 51.1 °F /  10.6 °C 39.7 °F /  4.3 °C 29.68 in /  1005 hPa West 9.2 mph /  14.8 km/h 5.0 mph /  8 km/h 65 % 0.00 in /  0 mm
02:00 52.0 °F /  11.1 °C 37.7 °F /  3.2 °C 29.66 in /  1004.3 hPa West 3.0 mph /  4.8 km/h 9.0 mph /  14.5 km/h 58 % 0.00 in /  0 mm
02:04 51.1 °F /  10.6 °C 40.1 °F /  4.5 °C 29.68 in /  1005 hPa West 11.5 mph /  18.5 km/h 7.5 mph /  12.1 km/h 66 % 0.00 in /  0 mm
02:05 51.9 °F /  11.1 °C 38.0 °F /  3.3 °C 29.66 in /  1004.3 hPa West 5.0 mph /  8 km/h 12.0 mph /  19.3 km/h 59 % 0.00 in /  0 mm
02:09 51.2 °F /  10.7 °C 40.2 °F /  4.6 °C 29.68 in /  1005 hPa WNW 10.4 mph /  16.7 km/h 7.1 mph /  11.4 km/h 66 % 0.00 in /  0 mm
02:10 52.0 °F /  11.1 °C 38.1 °F /  3.4 °C 29.67 in /  1004.6 hPa West 6.0 mph /  9.7 km/h 12.0 mph /  19.3 km/h 59 % 0.00 in /  0 mm
02:14 51.1 °F /  10.6 °C 40.1 °F /  4.5 °C 29.68 in /  1005 hPa West 15.0 mph /  24.1 km/h 10.1 mph /  16.3 km/h 66 % 0.00 in /  0 mm
02:15 51.8 °F /  11 °C 38.3 °F /  3.5 °C 29.66 in /  1004.3 hPa West 6.0 mph /  9.7 km/h 9.0 mph /  14.5 km/h 60 % 0.00 in /  0 mm
02:19 51.0 °F /  10.6 °C 40.0 °F /  4.4 °C 29.68 in /  1005 hPa West 13.8 mph /  22.2 km/h 11.0 mph /  17.7 km/h 66 % 0.00 in /  0 mm
02:20 51.8 °F /  11 °C 38.3 °F /  3.5 °C 29.66 in /  1004.3 hPa West 7.0 mph /  11.3 km/h 9.0 mph /  14.5 km/h 60 % 0.00 in /  0 mm
02:24 50.8 °F /  10.4 °C 40.2 °F /  4.6 °C 29.68 in /  1005 hPa West 6.9 mph /  11.1 km/h 6.2 mph /  10 km/h 67 % 0.00 in /  0 mm
02:25 51.7 °F /  10.9 °C 38.3 °F /  3.5 °C 29.66 in /  1004.3 hPa West 5.0 mph /  8 km/h 8.0 mph /  12.9 km/h 60 % 0.00 in /  0 mm
02:29 50.6 °F /  10.3 °C 40.0 °F /  4.4 °C 29.68 in /  1005 hPa West 8.1 mph /  13 km/h 5.3 mph /  8.5 km/h 67 % 0.00 in /  0 mm
02:30 51.6 °F /  10.9 °C 38.2 °F /  3.4 °C 29.66 in /  1004.3 hPa West 3.0 mph /  4.8 km/h 6.0 mph /  9.7 km/h 60 % 0.00 in /  0 mm
02:34 50.6 °F /  10.3 °C 40.0 °F /  4.4 °C 29.68 in /  1005 hPa West 11.5 mph /  18.5 km/h 9.1 mph /  14.6 km/h 67 % 0.00 in /  0 mm
02:35 51.5 °F /  10.8 °C 38.1 °F /  3.4 °C 29.66 in /  1004.3 hPa Calm   4.0 mph /  6.4 km/h 60 % 0.00 in /  0 mm
02:39 50.4 °F /  10.2 °C 40.2 °F /  4.6 °C 29.68 in /  1005 hPa WNW 9.2 mph /  14.8 km/h 6.6 mph /  10.6 km/h 68 % 0.00 in /  0 mm
02:40 51.4 °F /  10.8 °C 38.4 °F /  3.6 °C 29.67 in /  1004.6 hPa West 3.0 mph /  4.8 km/h 6.0 mph /  9.7 km/h 61 % 0.00 in /  0 mm
02:44 50.3 °F /  10.2 °C 40.1 °F /  4.5 °C 29.68 in /  1005 hPa West 14.0 mph /  22.5 km/h 9.7 mph /  15.6 km/h 68 % 0.00 in /  0 mm
02:45 51.4 °F /  10.8 °C 38.0 °F /  3.3 °C 29.67 in /  1004.6 hPa West 1.0 mph /  1.6 km/h 4.0 mph /  6.4 km/h 60 % 0.00 in /  0 mm
02:49 50.3 °F /  10.2 °C 40.1 °F /  4.5 °C 29.68 in /  1005 hPa West 6.9 mph /  11.1 km/h 5.4 mph /  8.7 km/h 68 % 0.00 in /  0 mm
02:50 51.5 °F /  10.8 °C 38.5 °F /  3.6 °C 29.67 in /  1004.6 hPa West 5.0 mph /  8 km/h 7.0 mph /  11.3 km/h 61 % 0.00 in /  0 mm
02:54 50.2 °F /  10.1 °C 40.4 °F /  4.7 °C 29.68 in /  1005 hPa West 12.7 mph /  20.4 km/h 5.8 mph /  9.3 km/h 69 % 0.00 in /  0 mm
02:55 51.6 °F /  10.9 °C 38.6 °F /  3.7 °C 29.67 in /  1004.6 hPa West 6.0 mph /  9.7 km/h 9.0 mph /  14.5 km/h 61 % 0.00 in /  0 mm
02:59 50.2 °F /  10.1 °C 40.4 °F /  4.7 °C 29.68 in /  1005 hPa West 9.2 mph /  14.8 km/h 8.5 mph /  13.7 km/h 69 % 0.00 in /  0 mm
03:00 51.9 °F /  11.1 °C 38.9 °F /  3.8 °C 29.67 in /  1004.6 hPa West 3.0 mph /  4.8 km/h 10.0 mph /  16.1 km/h 61 % 0.00 in /  0 mm
03:04 50.4 °F /  10.2 °C 41.0 °F /  5 °C 29.69 in /  1005.3 hPa West 9.0 mph /  14.5 km/h 7.8 mph /  12.6 km/h 70 % 0.00 in /  0 mm
03:05 52.0 °F /  11.1 °C 38.5 °F /  3.6 °C 29.67 in /  1004.6 hPa West 6.0 mph /  9.7 km/h 14.0 mph /  22.5 km/h 60 % 0.00 in /  0 mm
03:09 50.4 °F /  10.2 °C 41.0 °F /  5 °C 29.69 in /  1005.3 hPa West 8.0 mph /  12.9 km/h 5.7 mph /  9.2 km/h 70 % 0.00 in /  0 mm
03:10 52.0 °F /  11.1 °C 39.0 °F /  3.9 °C 29.67 in /  1004.6 hPa West 5.0 mph /  8 km/h 8.0 mph /  12.9 km/h 61 % 0.00 in /  0 mm
03:14 50.4 °F /  10.2 °C 41.0 °F /  5 °C 29.69 in /  1005.3 hPa WSW 12.7 mph /  20.4 km/h 8.1 mph /  13 km/h 70 % 0.00 in /  0 mm
03:15 52.0 °F /  11.1 °C 39.0 °F /  3.9 °C 29.67 in /  1004.6 hPa West 7.0 mph /  11.3 km/h 12.0 mph /  19.3 km/h 61 % 0.00 in /  0 mm
03:19 50.3 °F /  10.2 °C 40.9 °F /  4.9 °C 29.69 in /  1005.3 hPa WSW 13.8 mph /  22.2 km/h 9.7 mph /  15.6 km/h 70 % 0.00 in /  0 mm
03:20 52.0 °F /  11.1 °C 39.0 °F /  3.9 °C 29.67 in /  1004.6 hPa WNW 6.0 mph /  9.7 km/h 11.0 mph /  17.7 km/h 61 % 0.00 in /  0 mm
03:24 50.3 °F /  10.2 °C 40.9 °F /  4.9 °C 29.69 in /  1005.3 hPa WSW 11.5 mph /  18.5 km/h 7.8 mph /  12.6 km/h 70 % 0.00 in /  0 mm
03:25 51.8 °F /  11 °C 39.2 °F /  4 °C 29.68 in /  1005 hPa West 5.0 mph /  8 km/h 7.0 mph /  11.3 km/h 62 % 0.00 in /  0 mm
03:29 50.2 °F /  10.1 °C 41.2 °F /  5.1 °C 29.69 in /  1005.3 hPa WSW 7.0 mph /  11.3 km/h 4.9 mph /  7.9 km/h 71 % 0.00 in /  0 mm
03:30 51.6 °F /  10.9 °C 39.4 °F /  4.1 °C 29.68 in /  1005 hPa West 5.0 mph /  8 km/h 11.0 mph /  17.7 km/h 63 % 0.00 in /  0 mm
03:34 50.1 °F /  10.1 °C 41.1 °F /  5.1 °C 29.69 in /  1005.3 hPa WSW 10.0 mph /  16.1 km/h 7.3 mph /  11.7 km/h 71 % 0.00 in /  0 mm
03:35 51.5 °F /  10.8 °C 39.3 °F /  4.1 °C 29.68 in /  1005 hPa West 5.0 mph /  8 km/h 9.0 mph /  14.5 km/h 63 % 0.00 in /  0 mm
03:39 50.1 °F /  10.1 °C 41.1 °F /  5.1 °C 29.69 in /  1005.3 hPa WSW 6.9 mph /  11.1 km/h 4.4 mph /  7.1 km/h 71 % 0.00 in /  0 mm
03:40 51.4 °F /  10.8 °C 39.2 °F /  4 °C 29.68 in /  1005 hPa West 6.0 mph /  9.7 km/h 10.0 mph /  16.1 km/h 63 % 0.00 in /  0 mm
03:44 50.0 °F /  10 °C 41.3 °F /  5.2 °C 29.69 in /  1005.3 hPa WSW 9.0 mph /  14.5 km/h 5.1 mph /  8.2 km/h 72 % 0.00 in /  0 mm
03:45 51.3 °F /  10.7 °C 39.1 °F /  3.9 °C 29.68 in /  1005 hPa West 6.0 mph /  9.7 km/h 9.0 mph /  14.5 km/h 63 % 0.00 in /  0 mm
03:49 50.0 °F /  10 °C 41.3 °F /  5.2 °C 29.69 in /  1005.3 hPa West 7.0 mph /  11.3 km/h 5.6 mph /  9 km/h 72 % 0.00 in /  0 mm
03:50 51.2 °F /  10.7 °C 39.4 °F /  4.1 °C 29.68 in /  1005 hPa West 7.0 mph /  11.3 km/h 13.0 mph /  20.9 km/h 64 % 0.00 in /  0 mm
03:54 50.1 °F /  10.1 °C 41.4 °F /  5.2 °C 29.70 in /  1005.6 hPa West 5.8 mph /  9.3 km/h 4.4 mph /  7.1 km/h 72 % 0.00 in /  0 mm
03:55 51.1 °F /  10.6 °C 39.7 °F /  4.3 °C 29.68 in /  1005 hPa West 6.0 mph /  9.7 km/h 8.0 mph /  12.9 km/h 65 % 0.00 in /  0 mm
03:59 50.1 °F /  10.1 °C 41.8 °F /  5.4 °C 29.70 in /  1005.6 hPa WNW 13.0 mph /  20.9 km/h 9.3 mph /  15 km/h 73 % 0.00 in /  0 mm
04:00 51.0 °F /  10.6 °C 39.6 °F /  4.2 °C 29.68 in /  1005 hPa West 7.0 mph /  11.3 km/h 10.0 mph /  16.1 km/h 65 % 0.00 in /  0 mm
04:04 50.2 °F /  10.1 °C 41.5 °F /  5.3 °C 29.70 in /  1005.6 hPa West 12.7 mph /  20.4 km/h 9.6 mph /  15.4 km/h 72 % 0.00 in /  0 mm
04:05 51.1 °F /  10.6 °C 39.7 °F /  4.3 °C 29.68 in /  1005 hPa West 7.0 mph /  11.3 km/h 9.0 mph /  14.5 km/h 65 % 0.00 in /  0 mm
04:09 50.2 °F /  10.1 °C 41.5 °F /  5.3 °C 29.70 in /  1005.6 hPa West 9.0 mph /  14.5 km/h 7.3 mph /  11.7 km/h 72 % 0.00 in /  0 mm
04:10 51.2 °F /  10.7 °C 40.2 °F /  4.6 °C 29.68 in /  1005 hPa West 7.0 mph /  11.3 km/h 12.0 mph /  19.3 km/h 66 % 0.00 in /  0 mm
04:14 50.2 °F /  10.1 °C 41.5 °F /  5.3 °C 29.70 in /  1005.6 hPa West 9.2 mph /  14.8 km/h 6.9 mph /  11.1 km/h 72 % 0.00 in /  0 mm
04:15 51.2 °F /  10.7 °C 40.2 °F /  4.6 °C 29.68 in /  1005 hPa West 8.0 mph /  12.9 km/h 11.0 mph /  17.7 km/h 66 % 0.00 in /  0 mm
04:19 50.1 °F /  10.1 °C 41.4 °F /  5.2 °C 29.70 in /  1005.6 hPa West 11.0 mph /  17.7 km/h 7.2 mph /  11.6 km/h 72 % 0.00 in /  0 mm
04:20 51.1 °F /  10.6 °C 40.1 °F /  4.5 °C 29.68 in /  1005 hPa WNW 8.0 mph /  12.9 km/h 15.0 mph /  24.1 km/h 66 % 0.00 in /  0 mm
04:24 50.0 °F /  10 °C 41.3 °F /  5.2 °C 29.70 in /  1005.6 hPa West 9.2 mph /  14.8 km/h 5.6 mph /  9 km/h 72 % 0.00 in /  0 mm
04:25 51.0 °F /  10.6 °C 40.0 °F /  4.4 °C 29.68 in /  1005 hPa West 7.0 mph /  11.3 km/h 14.0 mph /  22.5 km/h 66 % 0.00 in /  0 mm
04:29 50.0 °F /  10 °C 41.3 °F /  5.2 °C 29.70 in /  1005.6 hPa West 11.5 mph /  18.5 km/h 6.9 mph /  11.1 km/h 72 % 0.00 in /  0 mm
04:30 50.7 °F /  10.4 °C 40.1 °F /  4.5 °C 29.68 in /  1005 hPa West 7.0 mph /  11.3 km/h 10.0 mph /  16.1 km/h 67 % 0.00 in /  0 mm
04:34 49.9 °F /  9.9 °C 41.2 °F /  5.1 °C 29.71 in /  1006 hPa West 10.4 mph /  16.7 km/h 6.0 mph /  9.7 km/h 72 % 0.00 in /  0 mm
04:35 50.5 °F /  10.3 °C 39.9 °F /  4.4 °C 29.68 in /  1005 hPa West 9.0 mph /  14.5 km/h 13.0 mph /  20.9 km/h 67 % 0.00 in /  0 mm
04:39 49.8 °F /  9.9 °C 41.5 °F /  5.3 °C 29.71 in /  1006 hPa West 10.4 mph /  16.7 km/h 7.2 mph /  11.6 km/h 73 % 0.00 in /  0 mm
04:40 50.5 °F /  10.3 °C 39.9 °F /  4.4 °C 29.68 in /  1005 hPa West 6.0 mph /  9.7 km/h 12.0 mph /  19.3 km/h 67 % 0.00 in /  0 mm
04:44 49.6 °F /  9.8 °C 41.3 °F /  5.2 °C 29.71 in /  1006 hPa West 6.0 mph /  9.7 km/h 5.2 mph /  8.4 km/h 73 % 0.00 in /  0 mm
04:45 50.4 °F /  10.2 °C 40.2 °F /  4.6 °C 29.68 in /  1005 hPa West 6.0 mph /  9.7 km/h 11.0 mph /  17.7 km/h 68 % 0.00 in /  0 mm
04:49 49.4 °F /  9.7 °C 41.1 °F /  5.1 °C 29.71 in /  1006 hPa WSW 11.5 mph /  18.5 km/h 6.2 mph /  10 km/h 73 % 0.00 in /  0 mm
04:50 50.3 °F /  10.2 °C 40.1 °F /  4.5 °C 29.68 in /  1005 hPa West 8.0 mph /  12.9 km/h 14.0 mph /  22.5 km/h 68 % 0.00 in /  0 mm
04:54 49.4 °F /  9.7 °C 41.1 °F /  5.1 °C 29.71 in /  1006 hPa WSW 11.5 mph /  18.5 km/h 6.8 mph /  10.9 km/h 73 % 0.00 in /  0 mm
04:55 50.2 °F /  10.1 °C 40.4 °F /  4.7 °C 29.68 in /  1005 hPa West 7.0 mph /  11.3 km/h 10.0 mph /  16.1 km/h 69 % 0.00 in /  0 mm
04:59 49.3 °F /  9.6 °C 41.0 °F /  5 °C 29.71 in /  1006 hPa WSW 10.4 mph /  16.7 km/h 5.2 mph /  8.4 km/h 73 % 0.00 in /  0 mm
05:04 49.1 °F /  9.5 °C 40.8 °F /  4.9 °C 29.71 in /  1006 hPa WSW 6.0 mph /  9.7 km/h 5.4 mph /  8.7 km/h 73 % 0.00 in /  0 mm
05:09 49.0 °F /  9.4 °C 42.1 °F /  5.6 °C 29.72 in /  1006.3 hPa WSW 9.2 mph /  14.8 km/h 5.9 mph /  9.5 km/h 77 % 0.00 in /  0 mm
05:13 48.9 °F /  9.4 °C 41.0 °F /  5 °C 29.72 in /  1006.3 hPa WSW 9.2 mph /  14.8 km/h 4.0 mph /  6.4 km/h 74 % 0.00 in /  0 mm
07:41 48.6 °F /  9.2 °C 41.4 °F /  5.2 °C 29.79 in /  1008.7 hPa Calm     76 % 0.00 in /  0 mm
07:49 48.7 °F /  9.3 °C 41.5 °F /  5.3 °C 29.80 in /  1009 hPa West 5.8 mph /  9.3 km/h 4.9 mph /  7.9 km/h 76 % 0.00 in /  0 mm
07:55 48.7 °F /  9.3 °C 41.1 °F /  5.1 °C 29.73 in /  1006.7 hPa WSW 5.0 mph /  8 km/h 8.0 mph /  12.9 km/h 75 % 0.00 in /  0 mm
07:59 49.1 °F /  9.5 °C 41.5 °F /  5.3 °C 29.80 in /  1009 hPa West 4.6 mph /  7.4 km/h 4.8 mph /  7.7 km/h 75 % 0.00 in /  0 mm
08:04 49.3 °F /  9.6 °C 41.7 °F /  5.4 °C 29.81 in /  1009.4 hPa West 7.0 mph /  11.3 km/h 4.4 mph /  7.1 km/h 75 % 0.00 in /  0 mm
08:09 49.6 °F /  9.8 °C 42.0 °F /  5.6 °C 29.81 in /  1009.4 hPa West 5.8 mph /  9.3 km/h 2.2 mph /  3.5 km/h 75 % 0.00 in /  0 mm
08:14 49.9 °F /  9.9 °C 41.9 °F /  5.5 °C 29.81 in /  1009.4 hPa West 4.6 mph /  7.4 km/h 3.0 mph /  4.8 km/h 74 % 0.00 in /  0 mm
08:19 50.2 °F /  10.1 °C 42.6 °F /  5.9 °C 29.82 in /  1009.7 hPa West 4.6 mph /  7.4 km/h 4.7 mph /  7.6 km/h 75 % 0.00 in /  0 mm
08:24 50.4 °F /  10.2 °C 42.1 °F /  5.6 °C 29.82 in /  1009.7 hPa West 5.8 mph /  9.3 km/h 4.7 mph /  7.6 km/h 73 % 0.00 in /  0 mm
08:29 50.7 °F /  10.4 °C 42.4 °F /  5.8 °C 29.82 in /  1009.7 hPa West 9.2 mph /  14.8 km/h 6.4 mph /  10.3 km/h 73 % 0.00 in /  0 mm
08:34 51.1 °F /  10.6 °C 42.7 °F /  5.9 °C 29.83 in /  1010 hPa WSW 9.2 mph /  14.8 km/h 5.6 mph /  9 km/h 73 % 0.00 in /  0 mm
08:39 51.6 °F /  10.9 °C 42.9 °F /  6.1 °C 29.83 in /  1010 hPa WSW 11.5 mph /  18.5 km/h 7.6 mph /  12.2 km/h 72 % 0.00 in /  0 mm
08:44 51.8 °F /  11 °C 42.7 °F /  5.9 °C 29.83 in /  1010 hPa WSW 10.4 mph /  16.7 km/h 10.4 mph /  16.7 km/h 71 % 0.00 in /  0 mm
08:49 51.8 °F /  11 °C 42.3 °F /  5.7 °C 29.84 in /  1010.4 hPa WSW 9.2 mph /  14.8 km/h 7.9 mph /  12.7 km/h 70 % 0.00 in /  0 mm
08:54 52.1 °F /  11.2 °C 42.6 °F /  5.9 °C 29.84 in /  1010.4 hPa West 13.8 mph /  22.2 km/h 8.0 mph /  12.9 km/h 70 % 0.00 in /  0 mm
08:59 52.3 °F /  11.3 °C 42.8 °F /  6 °C 29.84 in /  1010.4 hPa WSW 8.1 mph /  13 km/h 6.1 mph /  9.8 km/h 70 % 0.00 in /  0 mm
09:04 52.6 °F /  11.4 °C 42.7 °F /  5.9 °C 29.84 in /  1010.4 hPa West 9.2 mph /  14.8 km/h 6.2 mph /  10 km/h 69 % 0.00 in /  0 mm
09:09 52.8 °F /  11.6 °C 42.5 °F /  5.8 °C 29.84 in /  1010.4 hPa SW 11.5 mph /  18.5 km/h 9.6 mph /  15.4 km/h 68 % 0.00 in /  0 mm
09:14 52.9 °F /  11.6 °C 41.8 °F /  5.4 °C 29.85 in /  1010.7 hPa SSW 16.1 mph /  25.9 km/h 11.2 mph /  18 km/h 66 % 0.00 in /  0 mm
09:19 53.1 °F /  11.7 °C 42.0 °F /  5.6 °C 29.85 in /  1010.7 hPa SSW 13.8 mph /  22.2 km/h 7.8 mph /  12.6 km/h 66 % 0.00 in /  0 mm
09:24 53.4 °F /  11.9 °C 42.3 °F /  5.7 °C 29.85 in /  1010.7 hPa SW 11.5 mph /  18.5 km/h 5.7 mph /  9.2 km/h 66 % 0.00 in /  0 mm
09:29 53.8 °F /  12.1 °C 42.7 °F /  5.9 °C 29.85 in /  1010.7 hPa SSW 11.0 mph /  17.7 km/h 6.4 mph /  10.3 km/h 66 % 0.00 in /  0 mm
09:34 54.1 °F /  12.3 °C 42.2 °F /  5.7 °C 29.85 in /  1010.7 hPa SW 12.7 mph /  20.4 km/h 6.5 mph /  10.5 km/h 64 % 0.00 in /  0 mm
09:39 54.5 °F /  12.5 °C 42.2 °F /  5.7 °C 29.85 in /  1010.7 hPa SSW 12.7 mph /  20.4 km/h 7.6 mph /  12.2 km/h 63 % 0.00 in /  0 mm
09:44 54.8 °F /  12.7 °C 42.0 °F /  5.6 °C 29.86 in /  1011.1 hPa WSW 19.0 mph /  30.6 km/h 11.4 mph /  18.3 km/h 62 % 0.00 in /  0 mm
09:49 54.0 °F /  12.2 °C 41.3 °F /  5.2 °C 29.86 in /  1011.1 hPa WSW 13.0 mph /  20.9 km/h 11.4 mph /  18.3 km/h 62 % 0.00 in /  0 mm
09:54 53.6 °F /  12 °C 41.3 °F /  5.2 °C 29.86 in /  1011.1 hPa WSW 16.1 mph /  25.9 km/h 9.2 mph /  14.8 km/h 63 % 0.00 in /  0 mm
09:59 54.1 °F /  12.3 °C 42.2 °F /  5.7 °C 29.86 in /  1011.1 hPa North 10.4 mph /  16.7 km/h 7.8 mph /  12.6 km/h 64 % 0.00 in /  0 mm
10:04 54.6 °F /  12.6 °C 42.3 °F /  5.7 °C 29.87 in /  1011.4 hPa SSW 15.0 mph /  24.1 km/h 8.2 mph /  13.2 km/h 63 % 0.00 in /  0 mm
10:09 54.8 °F /  12.7 °C 42.0 °F /  5.6 °C 29.87 in /  1011.4 hPa West 12.0 mph /  19.3 km/h 11.1 mph /  17.9 km/h 62 % 0.00 in /  0 mm
10:14 54.9 °F /  12.7 °C 41.7 °F /  5.4 °C 29.87 in /  1011.4 hPa SW 9.2 mph /  14.8 km/h 6.4 mph /  10.3 km/h 61 % 0.00 in /  0 mm
10:19 55.3 °F /  12.9 °C 42.1 °F /  5.6 °C 29.87 in /  1011.4 hPa South 20.7 mph /  33.3 km/h 9.7 mph /  15.6 km/h 61 % 0.00 in /  0 mm
10:24 56.0 °F /  13.3 °C 42.7 °F /  5.9 °C 29.87 in /  1011.4 hPa SW 13.8 mph /  22.2 km/h 7.5 mph /  12.1 km/h 61 % 0.00 in /  0 mm
10:29 55.8 °F /  13.2 °C 41.7 °F /  5.4 °C 29.88 in /  1011.7 hPa West 10.0 mph /  16.1 km/h 9.9 mph /  15.9 km/h 59 % 0.00 in /  0 mm
10:34 55.1 °F /  12.8 °C 41.5 °F /  5.3 °C 29.88 in /  1011.7 hPa SSW 11.5 mph /  18.5 km/h 6.6 mph /  10.6 km/h 60 % 0.00 in /  0 mm
10:39 54.9 °F /  12.7 °C 41.7 °F /  5.4 °C 29.88 in /  1011.7 hPa SSW 11.5 mph /  18.5 km/h 9.3 mph /  15 km/h 61 % 0.00 in /  0 mm
10:44 55.4 °F /  13 °C 41.7 °F /  5.4 °C 29.88 in /  1011.7 hPa SW 12.7 mph /  20.4 km/h 11.5 mph /  18.5 km/h 60 % 0.00 in /  0 mm
10:49 55.8 °F /  13.2 °C 41.2 °F /  5.1 °C 29.88 in /  1011.7 hPa WSW 11.5 mph /  18.5 km/h 6.8 mph /  10.9 km/h 58 % 0.00 in /  0 mm
10:54 56.2 °F /  13.4 °C 41.2 °F /  5.1 °C 29.88 in /  1011.7 hPa SSW 12.7 mph /  20.4 km/h 7.1 mph /  11.4 km/h 57 % 0.00 in /  0 mm
10:59 56.6 °F /  13.7 °C 40.6 °F /  4.8 °C 29.88 in /  1011.7 hPa WSW 18.4 mph /  29.6 km/h 9.8 mph /  15.8 km/h 55 % 0.00 in /  0 mm
11:04 56.6 °F /  13.7 °C 39.7 °F /  4.3 °C 29.89 in /  1012.1 hPa WSW 12.7 mph /  20.4 km/h 9.2 mph /  14.8 km/h 53 % 0.00 in /  0 mm
11:09 57.1 °F /  13.9 °C 40.6 °F /  4.8 °C 29.89 in /  1012.1 hPa WSW 12.7 mph /  20.4 km/h 9.2 mph /  14.8 km/h 54 % 0.00 in /  0 mm
11:14 56.8 °F /  13.8 °C 38.9 °F /  3.8 °C 29.90 in /  1012.4 hPa SW 15.0 mph /  24.1 km/h 10.8 mph /  17.4 km/h 51 % 0.00 in /  0 mm
11:19 56.8 °F /  13.8 °C 38.9 °F /  3.8 °C 29.89 in /  1012.1 hPa SW 11.5 mph /  18.5 km/h 6.2 mph /  10 km/h 51 % 0.00 in /  0 mm
11:24 56.6 °F /  13.7 °C 39.2 °F /  4 °C 29.90 in /  1012.4 hPa WSW 16.1 mph /  25.9 km/h 9.9 mph /  15.9 km/h 52 % 0.00 in /  0 mm
11:29 57.3 °F /  14.1 °C 39.8 °F /  4.3 °C 29.89 in /  1012.1 hPa SW 16.1 mph /  25.9 km/h 12.1 mph /  19.5 km/h 52 % 0.00 in /  0 mm
11:34 56.8 °F /  13.8 °C 39.4 °F /  4.1 °C 29.90 in /  1012.4 hPa SW 15.0 mph /  24.1 km/h 12.7 mph /  20.4 km/h 52 % 0.00 in /  0 mm
11:39 57.3 °F /  14.1 °C 38.8 °F /  3.8 °C 29.90 in /  1012.4 hPa WSW 10.4 mph /  16.7 km/h 8.3 mph /  13.4 km/h 50 % 0.00 in /  0 mm
11:44 59.0 °F /  15 °C 40.4 °F /  4.7 °C 29.90 in /  1012.4 hPa SSW 10.4 mph /  16.7 km/h 6.8 mph /  10.9 km/h 50 % 0.00 in /  0 mm
11:49 58.3 °F /  14.6 °C 38.1 °F /  3.4 °C 29.90 in /  1012.4 hPa SW 18.4 mph /  29.6 km/h 10.7 mph /  17.2 km/h 47 % 0.00 in /  0 mm
11:54 57.8 °F /  14.3 °C 39.8 °F /  4.3 °C 29.90 in /  1012.4 hPa SSW 11.5 mph /  18.5 km/h 7.9 mph /  12.7 km/h 51 % 0.00 in /  0 mm
11:59 58.2 °F /  14.6 °C 39.6 °F /  4.2 °C 29.90 in /  1012.4 hPa SW 15.0 mph /  24.1 km/h 7.2 mph /  11.6 km/h 50 % 0.00 in /  0 mm
12:04 58.1 °F /  14.5 °C 38.5 °F /  3.6 °C 29.90 in /  1012.4 hPa WSW 17.3 mph /  27.8 km/h 13.0 mph /  20.9 km/h 48 % 0.00 in /  0 mm
12:09 57.7 °F /  14.3 °C 38.1 °F /  3.4 °C 29.90 in /  1012.4 hPa WSW 15.0 mph /  24.1 km/h 7.7 mph /  12.4 km/h 48 % 0.00 in /  0 mm
12:14 58.4 °F /  14.7 °C 39.8 °F /  4.3 °C 29.90 in /  1012.4 hPa SSW 13.8 mph /  22.2 km/h 11.4 mph /  18.3 km/h 50 % 0.00 in /  0 mm
12:19 59.1 °F /  15.1 °C 40.5 °F /  4.7 °C 29.90 in /  1012.4 hPa WSW 13.8 mph /  22.2 km/h 10.4 mph /  16.7 km/h 50 % 0.00 in /  0 mm
12:24 59.4 °F /  15.2 °C 39.1 °F /  3.9 °C 29.90 in /  1012.4 hPa SSW 10.4 mph /  16.7 km/h 8.8 mph /  14.2 km/h 47 % 0.00 in /  0 mm
12:29 59.8 °F /  15.4 °C 40.6 °F /  4.8 °C 29.90 in /  1012.4 hPa SSW 11.5 mph /  18.5 km/h 6.3 mph /  10.1 km/h 49 % 0.00 in /  0 mm
12:34 60.0 °F /  15.6 °C 39.1 °F /  3.9 °C 29.91 in /  1012.8 hPa WSW 16.1 mph /  25.9 km/h 10.1 mph /  16.3 km/h 46 % 0.00 in /  0 mm
12:39 58.7 °F /  14.8 °C 38.0 °F /  3.3 °C 29.90 in /  1012.4 hPa SW 10.4 mph /  16.7 km/h 6.9 mph /  11.1 km/h 46 % 0.00 in /  0 mm
12:44 59.6 °F /  15.3 °C 38.8 °F /  3.8 °C 29.90 in /  1012.4 hPa SSW 13.0 mph /  20.9 km/h 9.4 mph /  15.1 km/h 46 % 0.00 in /  0 mm
12:49 60.1 °F /  15.6 °C 38.1 °F /  3.4 °C 29.90 in /  1012.4 hPa SW 14.0 mph /  22.5 km/h 11.6 mph /  18.7 km/h 44 % 0.00 in /  0 mm
12:54 58.9 °F /  14.9 °C 38.1 °F /  3.4 °C 29.90 in /  1012.4 hPa SW 19.6 mph /  31.5 km/h 10.4 mph /  16.7 km/h 46 % 0.00 in /  0 mm
12:59 59.7 °F /  15.4 °C 40.0 °F /  4.4 °C 29.90 in /  1012.4 hPa West 11.5 mph /  18.5 km/h 10.3 mph /  16.6 km/h 48 % 0.00 in /  0 mm
13:04 60.9 °F /  16.1 °C 38.8 °F /  3.8 °C 29.90 in /  1012.4 hPa SSW 11.5 mph /  18.5 km/h 8.0 mph /  12.9 km/h 44 % 0.00 in /  0 mm
13:09 60.8 °F /  16 °C 38.1 °F /  3.4 °C 29.90 in /  1012.4 hPa SSW 12.7 mph /  20.4 km/h 5.5 mph /  8.9 km/h 43 % 0.00 in /  0 mm
13:14 60.5 °F /  15.8 °C 38.5 °F /  3.6 °C 29.90 in /  1012.4 hPa SSW 12.7 mph /  20.4 km/h 11.2 mph /  18 km/h 44 % 0.00 in /  0 mm
13:19 59.6 °F /  15.3 °C 36.5 °F /  2.5 °C 29.91 in /  1012.8 hPa SSW 15.0 mph /  24.1 km/h 8.8 mph /  14.2 km/h 42 % 0.00 in /  0 mm
13:24 60.3 °F /  15.7 °C 37.7 °F /  3.2 °C 29.91 in /  1012.8 hPa SW 9.2 mph /  14.8 km/h 10.6 mph /  17.1 km/h 43 % 0.00 in /  0 mm
13:29 61.2 °F /  16.2 °C 36.7 °F /  2.6 °C 29.90 in /  1012.4 hPa WSW 9.2 mph /  14.8 km/h 5.9 mph /  9.5 km/h 40 % 0.00 in /  0 mm
13:34 61.1 °F /  16.2 °C 37.8 °F /  3.2 °C 29.91 in /  1012.8 hPa WSW 16.0 mph /  25.7 km/h 14.1 mph /  22.7 km/h 42 % 0.00 in /  0 mm
13:39 61.2 °F /  16.2 °C 37.9 °F /  3.3 °C 29.90 in /  1012.4 hPa SW 12.7 mph /  20.4 km/h 12.0 mph /  19.3 km/h 42 % 0.00 in /  0 mm
13:44 61.5 °F /  16.4 °C 38.8 °F /  3.8 °C 29.90 in /  1012.4 hPa SW 11.5 mph /  18.5 km/h 10.2 mph /  16.4 km/h 43 % 0.00 in /  0 mm
13:49 62.4 °F /  16.9 °C 39.6 °F /  4.2 °C 29.91 in /  1012.8 hPa South 13.0 mph /  20.9 km/h 8.6 mph /  13.8 km/h 43 % 0.00 in /  0 mm
13:54 62.8 °F /  17.1 °C 39.4 °F /  4.1 °C 29.91 in /  1012.8 hPa SW 12.7 mph /  20.4 km/h 12.5 mph /  20.1 km/h 42 % 0.00 in /  0 mm
13:59 62.7 °F /  17.1 °C 39.9 °F /  4.4 °C 29.91 in /  1012.8 hPa WSW 16.0 mph /  25.7 km/h 9.7 mph /  15.6 km/h 43 % 0.00 in /  0 mm
14:04 61.1 °F /  16.2 °C 39.6 °F /  4.2 °C 29.91 in /  1012.8 hPa SSW 16.1 mph /  25.9 km/h 9.7 mph /  15.6 km/h 45 % 0.00 in /  0 mm
14:09 60.7 °F /  15.9 °C 40.9 °F /  4.9 °C 29.91 in /  1012.8 hPa SSW 10.4 mph /  16.7 km/h 7.8 mph /  12.6 km/h 48 % 0.00 in /  0 mm
14:14 60.6 °F /  15.9 °C 39.1 °F /  3.9 °C 29.91 in /  1012.8 hPa SSW 11.5 mph /  18.5 km/h 2.4 mph /  3.9 km/h 45 % 0.00 in /  0 mm
14:19 62.3 °F /  16.8 °C 40.7 °F /  4.8 °C 29.91 in /  1012.8 hPa SSW 12.0 mph /  19.3 km/h 9.2 mph /  14.8 km/h 45 % 0.00 in /  0 mm
14:24 63.6 °F /  17.6 °C 41.3 °F /  5.2 °C 29.91 in /  1012.8 hPa WSW 11.5 mph /  18.5 km/h 8.4 mph /  13.5 km/h 44 % 0.00 in /  0 mm
14:29 63.1 °F /  17.3 °C 40.2 °F /  4.6 °C 29.91 in /  1012.8 hPa SSW 12.7 mph /  20.4 km/h 7.7 mph /  12.4 km/h 43 % 0.00 in /  0 mm
14:34 62.0 °F /  16.7 °C 40.4 °F /  4.7 °C 29.91 in /  1012.8 hPa SW 11.5 mph /  18.5 km/h 8.7 mph /  14 km/h 45 % 0.00 in /  0 mm
14:39 61.5 °F /  16.4 °C 41.1 °F /  5.1 °C 29.91 in /  1012.8 hPa SW 15.0 mph /  24.1 km/h 8.3 mph /  13.4 km/h 47 % 0.00 in /  0 mm
14:44 61.9 °F /  16.6 °C 40.9 °F /  4.9 °C 29.91 in /  1012.8 hPa SSW 11.5 mph /  18.5 km/h 7.7 mph /  12.4 km/h 46 % 0.00 in /  0 mm
14:49 62.2 °F /  16.8 °C 41.2 °F /  5.1 °C 29.91 in /  1012.8 hPa West 17.3 mph /  27.8 km/h 8.5 mph /  13.7 km/h 46 % 0.00 in /  0 mm
14:54 62.6 °F /  17 °C 41.5 °F /  5.3 °C 29.92 in /  1013.1 hPa WSW 12.7 mph /  20.4 km/h 9.5 mph /  15.3 km/h 46 % 0.00 in /  0 mm
14:59 63.5 °F /  17.5 °C 40.6 °F /  4.8 °C 29.92 in /  1013.1 hPa SW 11.5 mph /  18.5 km/h 7.3 mph /  11.7 km/h 43 % 0.00 in /  0 mm
15:04 63.2 °F /  17.3 °C 38.5 °F /  3.6 °C 29.92 in /  1013.1 hPa WSW 17.3 mph /  27.8 km/h 11.4 mph /  18.3 km/h 40 % 0.00 in /  0 mm
15:09 62.4 °F /  16.9 °C 39.6 °F /  4.2 °C 29.92 in /  1013.1 hPa West 12.0 mph /  19.3 km/h 9.8 mph /  15.8 km/h 43 % 0.00 in /  0 mm
15:14 61.9 °F /  16.6 °C 38.5 °F /  3.6 °C 29.92 in /  1013.1 hPa SW 16.1 mph /  25.9 km/h 11.4 mph /  18.3 km/h 42 % 0.00 in /  0 mm
15:19 61.9 °F /  16.6 °C 39.7 °F /  4.3 °C 29.92 in /  1013.1 hPa SW 9.2 mph /  14.8 km/h 8.3 mph /  13.4 km/h 44 % 0.00 in /  0 mm
15:24 61.9 °F /  16.6 °C 39.1 °F /  3.9 °C 29.92 in /  1013.1 hPa SW 19.6 mph /  31.5 km/h 11.5 mph /  18.5 km/h 43 % 0.00 in /  0 mm
15:29 62.5 °F /  16.9 °C 40.3 °F /  4.6 °C 29.92 in /  1013.1 hPa South 13.0 mph /  20.9 km/h 10.5 mph /  16.9 km/h 44 % 0.00 in /  0 mm
15:34 62.1 °F /  16.7 °C 39.3 °F /  4.1 °C 29.92 in /  1013.1 hPa SSW 11.5 mph /  18.5 km/h 5.7 mph /  9.2 km/h 43 % 0.00 in /  0 mm
15:39 62.0 °F /  16.7 °C 39.8 °F /  4.3 °C 29.92 in /  1013.1 hPa SSW 16.1 mph /  25.9 km/h 10.1 mph /  16.3 km/h 44 % 0.00 in /  0 mm
15:44 62.6 °F /  17 °C 40.4 °F /  4.7 °C 29.91 in /  1012.8 hPa South 16.1 mph /  25.9 km/h 8.4 mph /  13.5 km/h 44 % 0.00 in /  0 mm
15:49 63.5 °F /  17.5 °C 40.6 °F /  4.8 °C 29.91 in /  1012.8 hPa SW 10.4 mph /  16.7 km/h 7.8 mph /  12.6 km/h 43 % 0.00 in /  0 mm
15:54 63.1 °F /  17.3 °C 39.6 °F /  4.2 °C 29.91 in /  1012.8 hPa SE 14.0 mph /  22.5 km/h 10.0 mph /  16.1 km/h 42 % 0.00 in /  0 mm
15:59 63.2 °F /  17.3 °C 40.3 °F /  4.6 °C 29.91 in /  1012.8 hPa South 13.8 mph /  22.2 km/h 10.3 mph /  16.6 km/h 43 % 0.00 in /  0 mm
16:04 63.8 °F /  17.7 °C 40.9 °F /  4.9 °C 29.91 in /  1012.8 hPa South 15.0 mph /  24.1 km/h 7.5 mph /  12.1 km/h 43 % 0.00 in /  0 mm
16:09 64.0 °F /  17.8 °C 41.0 °F /  5 °C 29.91 in /  1012.8 hPa SW 19.6 mph /  31.5 km/h 8.9 mph /  14.3 km/h 43 % 0.00 in /  0 mm
16:14 63.1 °F /  17.3 °C 40.2 °F /  4.6 °C 29.91 in /  1012.8 hPa South 16.1 mph /  25.9 km/h 11.1 mph /  17.9 km/h 43 % 0.00 in /  0 mm
16:19 62.5 °F /  16.9 °C 40.9 °F /  4.9 °C 29.91 in /  1012.8 hPa SSW 9.2 mph /  14.8 km/h 8.2 mph /  13.2 km/h 45 % 0.00 in /  0 mm
16:24 63.7 °F /  17.6 °C 41.4 °F /  5.2 °C 29.91 in /  1012.8 hPa SSW 15.0 mph /  24.1 km/h 7.9 mph /  12.7 km/h 44 % 0.00 in /  0 mm
16:29 64.3 °F /  17.9 °C 41.3 °F /  5.2 °C 29.91 in /  1012.8 hPa SSW 9.2 mph /  14.8 km/h 5.9 mph /  9.5 km/h 43 % 0.00 in /  0 mm
16:34 64.1 °F /  17.8 °C 40.5 °F /  4.7 °C 29.91 in /  1012.8 hPa SW 11.0 mph /  17.7 km/h 4.9 mph /  7.9 km/h 42 % 0.00 in /  0 mm
16:39 64.8 °F /  18.2 °C 38.6 °F /  3.7 °C 29.91 in /  1012.8 hPa WNW 10.0 mph /  16.1 km/h 6.5 mph /  10.5 km/h 38 % 0.00 in /  0 mm
16:44 65.3 °F /  18.5 °C 39.0 °F /  3.9 °C 29.91 in /  1012.8 hPa SW 16.1 mph /  25.9 km/h 9.0 mph /  14.5 km/h 38 % 0.00 in /  0 mm
16:49 65.2 °F /  18.4 °C 37.6 °F /  3.1 °C 29.91 in /  1012.8 hPa WSW 8.1 mph /  13 km/h 6.7 mph /  10.8 km/h 36 % 0.00 in /  0 mm
16:54 64.4 °F /  18 °C 38.2 °F /  3.4 °C 29.91 in /  1012.8 hPa SSW 12.7 mph /  20.4 km/h 8.7 mph /  14 km/h 38 % 0.00 in /  0 mm
16:59 63.6 °F /  17.6 °C 38.8 °F /  3.8 °C 29.91 in /  1012.8 hPa SSW 8.1 mph /  13 km/h 4.6 mph /  7.4 km/h 40 % 0.00 in /  0 mm
17:04 63.8 °F /  17.7 °C 38.4 °F /  3.6 °C 29.91 in /  1012.8 hPa South 11.5 mph /  18.5 km/h 7.6 mph /  12.2 km/h 39 % 0.00 in /  0 mm
17:09 65.0 °F /  18.3 °C 38.8 °F /  3.8 °C 29.91 in /  1012.8 hPa South 8.1 mph /  13 km/h 4.3 mph /  6.9 km/h 38 % 0.00 in /  0 mm
17:14 66.2 °F /  19 °C 37.7 °F /  3.2 °C 29.92 in /  1013.1 hPa SSW 18.4 mph /  29.6 km/h 10.1 mph /  16.3 km/h 35 % 0.00 in /  0 mm
17:19 65.0 °F /  18.3 °C 37.4 °F /  3 °C 29.92 in /  1013.1 hPa SSW 11.5 mph /  18.5 km/h 5.1 mph /  8.2 km/h 36 % 0.00 in /  0 mm
17:24 64.2 °F /  17.9 °C 38.7 °F /  3.7 °C 29.92 in /  1013.1 hPa South 11.5 mph /  18.5 km/h 6.3 mph /  10.1 km/h 39 % 0.00 in /  0 mm
17:29 63.5 °F /  17.5 °C 38.7 °F /  3.7 °C 29.92 in /  1013.1 hPa SSW 13.8 mph /  22.2 km/h 9.5 mph /  15.3 km/h 40 % 0.00 in /  0 mm
17:34 63.1 °F /  17.3 °C 39.0 °F /  3.9 °C 29.92 in /  1013.1 hPa SSW 7.0 mph /  11.3 km/h 3.0 mph /  4.8 km/h 41 % 0.00 in /  0 mm
17:39 63.9 °F /  17.7 °C 39.1 °F /  3.9 °C 29.92 in /  1013.1 hPa SSW 16.1 mph /  25.9 km/h 7.9 mph /  12.7 km/h 40 % 0.00 in /  0 mm
17:44 63.8 °F /  17.7 °C 39.0 °F /  3.9 °C 29.92 in /  1013.1 hPa SSE 10.0 mph /  16.1 km/h 7.8 mph /  12.6 km/h 40 % 0.00 in /  0 mm
17:49 63.7 °F /  17.6 °C 38.9 °F /  3.8 °C 29.92 in /  1013.1 hPa SSW 12.7 mph /  20.4 km/h 6.5 mph /  10.5 km/h 40 % 0.00 in /  0 mm
17:54 64.6 °F /  18.1 °C 39.1 °F /  3.9 °C 29.93 in /  1013.4 hPa SW 12.7 mph /  20.4 km/h 9.1 mph /  14.6 km/h 39 % 0.00 in /  0 mm
17:59 64.8 °F /  18.2 °C 38.6 °F /  3.7 °C 29.93 in /  1013.4 hPa SW 16.1 mph /  25.9 km/h 6.1 mph /  9.8 km/h 38 % 0.00 in /  0 mm
18:04 64.3 °F /  17.9 °C 38.1 °F /  3.4 °C 29.93 in /  1013.4 hPa SSW 9.2 mph /  14.8 km/h 5.4 mph /  8.7 km/h 38 % 0.00 in /  0 mm
18:09 63.5 °F /  17.5 °C 38.7 °F /  3.7 °C 29.93 in /  1013.4 hPa SSW 11.5 mph /  18.5 km/h 7.1 mph /  11.4 km/h 40 % 0.00 in /  0 mm
18:14 63.0 °F /  17.2 °C 38.3 °F /  3.5 °C 29.93 in /  1013.4 hPa SSW 8.1 mph /  13 km/h 6.2 mph /  10 km/h 40 % 0.00 in /  0 mm
18:19 62.8 °F /  17.1 °C 38.7 °F /  3.7 °C 29.93 in /  1013.4 hPa SW 8.1 mph /  13 km/h 8.8 mph /  14.2 km/h 41 % 0.00 in /  0 mm
18:24 63.2 °F /  17.3 °C 39.1 °F /  3.9 °C 29.93 in /  1013.4 hPa SSW 9.2 mph /  14.8 km/h 7.9 mph /  12.7 km/h 41 % 0.00 in /  0 mm
18:29 63.9 °F /  17.7 °C 39.7 °F /  4.3 °C 29.94 in /  1013.8 hPa SW 10.4 mph /  16.7 km/h 6.0 mph /  9.7 km/h 41 % 0.00 in /  0 mm
18:34 63.4 °F /  17.4 °C 39.3 °F /  4.1 °C 29.94 in /  1013.8 hPa SW 11.5 mph /  18.5 km/h 5.5 mph /  8.9 km/h 41 % 0.00 in /  0 mm
18:39 62.9 °F /  17.2 °C 39.4 °F /  4.1 °C 29.94 in /  1013.8 hPa SSW 11.0 mph /  17.7 km/h 9.3 mph /  15 km/h 42 % 0.00 in /  0 mm
18:44 62.9 °F /  17.2 °C 39.4 °F /  4.1 °C 29.94 in /  1013.8 hPa SSW 11.5 mph /  18.5 km/h 7.8 mph /  12.6 km/h 42 % 0.00 in /  0 mm
18:49 63.1 °F /  17.3 °C 39.0 °F /  3.9 °C 29.94 in /  1013.8 hPa SW 11.5 mph /  18.5 km/h 7.1 mph /  11.4 km/h 41 % 0.00 in /  0 mm
18:54 63.6 °F /  17.6 °C 40.1 °F /  4.5 °C 29.95 in /  1014.1 hPa SSW 14.0 mph /  22.5 km/h 8.8 mph /  14.2 km/h 42 % 0.00 in /  0 mm
18:59 63.0 °F /  17.2 °C 39.5 °F /  4.2 °C 29.95 in /  1014.1 hPa SSW 9.2 mph /  14.8 km/h 4.7 mph /  7.6 km/h 42 % 0.00 in /  0 mm
19:04 62.7 °F /  17.1 °C 39.9 °F /  4.4 °C 29.95 in /  1014.1 hPa SSW 4.0 mph /  6.4 km/h 2.4 mph /  3.9 km/h 43 % 0.00 in /  0 mm
19:09 63.0 °F /  17.2 °C 39.5 °F /  4.2 °C 29.95 in /  1014.1 hPa SSW 10.4 mph /  16.7 km/h 6.7 mph /  10.8 km/h 42 % 0.00 in /  0 mm
19:14 63.2 °F /  17.3 °C 39.7 °F /  4.3 °C 29.95 in /  1014.1 hPa SSW 12.7 mph /  20.4 km/h 8.5 mph /  13.7 km/h 42 % 0.00 in /  0 mm
19:19 62.8 °F /  17.1 °C 40.0 °F /  4.4 °C 29.95 in /  1014.1 hPa SSE 11.5 mph /  18.5 km/h 8.5 mph /  13.7 km/h 43 % 0.00 in /  0 mm
19:24 62.1 °F /  16.7 °C 39.9 °F /  4.4 °C 29.95 in /  1014.1 hPa SSW 10.4 mph /  16.7 km/h 5.9 mph /  9.5 km/h 44 % 0.00 in /  0 mm
19:29 61.6 °F /  16.4 °C 40.0 °F /  4.4 °C 29.95 in /  1014.1 hPa SSW 5.8 mph /  9.3 km/h 4.1 mph /  6.6 km/h 45 % 0.00 in /  0 mm
19:34 61.7 °F /  16.5 °C 40.1 °F /  4.5 °C 29.95 in /  1014.1 hPa SSW 4.6 mph /  7.4 km/h 2.8 mph /  4.5 km/h 45 % 0.00 in /  0 mm
19:39 61.9 °F /  16.6 °C 40.3 °F /  4.6 °C 29.95 in /  1014.1 hPa SSW 3.5 mph /  5.6 km/h 2.3 mph /  3.7 km/h 45 % 0.00 in /  0 mm
19:44 61.9 °F /  16.6 °C 39.7 °F /  4.3 °C 29.96 in /  1014.4 hPa SSW 8.0 mph /  12.9 km/h 6.3 mph /  10.1 km/h 44 % 0.00 in /  0 mm
19:49 61.7 °F /  16.5 °C 40.1 °F /  4.5 °C 29.96 in /  1014.4 hPa SSW 7.0 mph /  11.3 km/h 6.3 mph /  10.1 km/h 45 % 0.00 in /  0 mm
19:54 61.3 °F /  16.3 °C 39.2 °F /  4 °C 29.96 in /  1014.4 hPa SW 8.1 mph /  13 km/h 4.5 mph /  7.2 km/h 44 % 0.00 in /  0 mm
19:59 61.0 °F /  16.1 °C 39.5 °F /  4.2 °C 29.96 in /  1014.4 hPa SW 8.1 mph /  13 km/h 4.4 mph /  7.1 km/h 45 % 0.00 in /  0 mm
20:04 61.0 °F /  16.1 °C 39.5 °F /  4.2 °C 29.96 in /  1014.4 hPa SSW 6.9 mph /  11.1 km/h 5.4 mph /  8.7 km/h 45 % 0.00 in /  0 mm
20:09 60.7 °F /  15.9 °C 39.8 °F /  4.3 °C 29.97 in /  1014.8 hPa SSW 9.2 mph /  14.8 km/h 5.1 mph /  8.2 km/h 46 % 0.00 in /  0 mm
20:14 60.4 °F /  15.8 °C 40.1 °F /  4.5 °C 29.97 in /  1014.8 hPa SSW 6.9 mph /  11.1 km/h 3.9 mph /  6.3 km/h 47 % 0.00 in /  0 mm
20:19 60.2 °F /  15.7 °C 39.3 °F /  4.1 °C 29.97 in /  1014.8 hPa SSW 5.0 mph /  8 km/h 4.4 mph /  7.1 km/h 46 % 0.00 in /  0 mm
20:22 60.1 °F /  15.6 °C 39.8 °F /  4.3 °C 29.97 in /  1014.8 hPa SSW 6.9 mph /  11.1 km/h 3.8 mph /  6.1 km/h 47 % 0.00 in /  0 mm
20:29 59.7 °F /  15.4 °C 40.0 °F /  4.4 °C 29.97 in /  1014.8 hPa SSW 6.9 mph /  11.1 km/h 6.9 mph /  11.1 km/h 48 % 0.00 in /  0 mm
20:39 59.1 °F /  15.1 °C 40.5 °F /  4.7 °C 29.98 in /  1015.1 hPa SSW 7.0 mph /  11.3 km/h 5.3 mph /  8.5 km/h 50 % 0.00 in /  0 mm
20:44 58.8 °F /  14.9 °C 40.7 °F /  4.8 °C 29.98 in /  1015.1 hPa SSW 9.2 mph /  14.8 km/h 4.3 mph /  6.9 km/h 51 % 0.00 in /  0 mm
20:49 58.5 °F /  14.7 °C 40.9 °F /  4.9 °C 29.98 in /  1015.1 hPa SSW 6.9 mph /  11.1 km/h 5.9 mph /  9.5 km/h 52 % 0.00 in /  0 mm
20:54 58.1 °F /  14.5 °C 41.0 °F /  5 °C 29.98 in /  1015.1 hPa SSW 4.0 mph /  6.4 km/h 3.2 mph /  5.1 km/h 53 % 0.00 in /  0 mm
20:59 57.9 °F /  14.4 °C 41.3 °F /  5.2 °C 29.98 in /  1015.1 hPa SSW 5.8 mph /  9.3 km/h 5.4 mph /  8.7 km/h 54 % 0.00 in /  0 mm
21:04 57.6 °F /  14.2 °C 41.5 °F /  5.3 °C 29.99 in /  1015.5 hPa SSW 6.9 mph /  11.1 km/h 4.8 mph /  7.7 km/h 55 % 0.00 in /  0 mm
21:09 57.4 °F /  14.1 °C 41.4 °F /  5.2 °C 29.99 in /  1015.5 hPa SSW 4.0 mph /  6.4 km/h 2.9 mph /  4.7 km/h 55 % 0.00 in /  0 mm
21:14 57.1 °F /  13.9 °C 41.5 °F /  5.3 °C 29.99 in /  1015.5 hPa SSW 3.5 mph /  5.6 km/h 2.1 mph /  3.4 km/h 56 % 0.00 in /  0 mm
21:19 56.8 °F /  13.8 °C 41.7 °F /  5.4 °C 29.99 in /  1015.5 hPa SSW 3.5 mph /  5.6 km/h 3.0 mph /  4.8 km/h 57 % 0.00 in /  0 mm
21:24 56.5 °F /  13.6 °C 41.4 °F /  5.2 °C 30.00 in /  1015.8 hPa SSW 3.5 mph /  5.6 km/h 1.9 mph /  3.1 km/h 57 % 0.00 in /  0 mm
21:29 56.2 °F /  13.4 °C 41.6 °F /  5.3 °C 30.00 in /  1015.8 hPa SSW 3.5 mph /  5.6 km/h 2.8 mph /  4.5 km/h 58 % 0.00 in /  0 mm
21:34 56.0 °F /  13.3 °C 41.9 °F /  5.5 °C 30.00 in /  1015.8 hPa SSW 3.5 mph /  5.6 km/h 2.2 mph /  3.5 km/h 59 % 0.00 in /  0 mm
21:39 55.8 °F /  13.2 °C 41.7 °F /  5.4 °C 30.00 in /  1015.8 hPa SSW 3.5 mph /  5.6 km/h 2.4 mph /  3.9 km/h 59 % 0.00 in /  0 mm
21:44 55.6 °F /  13.1 °C 41.9 °F /  5.5 °C 30.01 in /  1016.1 hPa SSW 5.8 mph /  9.3 km/h 3.9 mph /  6.3 km/h 60 % 0.00 in /  0 mm
21:49 55.4 °F /  13 °C 41.7 °F /  5.4 °C 30.01 in /  1016.1 hPa SSW 6.9 mph /  11.1 km/h 4.1 mph /  6.6 km/h 60 % 0.00 in /  0 mm
21:54 55.3 °F /  12.9 °C 41.6 °F /  5.3 °C 30.01 in /  1016.1 hPa SSW 4.6 mph /  7.4 km/h 2.2 mph /  3.5 km/h 60 % 0.00 in /  0 mm
21:59 55.2 °F /  12.9 °C 41.5 °F /  5.3 °C 30.01 in /  1016.1 hPa SSW 3.5 mph /  5.6 km/h 3.1 mph /  5 km/h 60 % 0.00 in /  0 mm
22:04 55.1 °F /  12.8 °C 41.9 °F /  5.5 °C 30.01 in /  1016.1 hPa SSW 3.5 mph /  5.6 km/h 2.2 mph /  3.5 km/h 61 % 0.00 in /  0 mm
22:09 54.9 °F /  12.7 °C 41.7 °F /  5.4 °C 30.01 in /  1016.1 hPa SSW 3.5 mph /  5.6 km/h 2.5 mph /  4 km/h 61 % 0.00 in /  0 mm
22:14 54.8 °F /  12.7 °C 42.0 °F /  5.6 °C 30.01 in /  1016.1 hPa SSW 3.5 mph /  5.6 km/h 2.5 mph /  4 km/h 62 % 0.00 in /  0 mm
22:19 54.7 °F /  12.6 °C 41.9 °F /  5.5 °C 30.01 in /  1016.1 hPa SSW 3.5 mph /  5.6 km/h 2.8 mph /  4.5 km/h 62 % 0.00 in /  0 mm
22:24 54.5 °F /  12.5 °C 41.7 °F /  5.4 °C 30.01 in /  1016.1 hPa SSW 4.0 mph /  6.4 km/h 3.3 mph /  5.3 km/h 62 % 0.00 in /  0 mm
22:29 54.4 °F /  12.4 °C 42.1 °F /  5.6 °C 30.01 in /  1016.1 hPa SSW 4.0 mph /  6.4 km/h 3.1 mph /  5 km/h 63 % 0.00 in /  0 mm
22:34 54.2 °F /  12.3 °C 41.9 °F /  5.5 °C 30.02 in /  1016.5 hPa SSW 3.5 mph /  5.6 km/h 3.1 mph /  5 km/h 63 % 0.00 in /  0 mm
22:39 54.0 °F /  12.2 °C 42.1 °F /  5.6 °C 30.02 in /  1016.5 hPa SSW 4.6 mph /  7.4 km/h 4.0 mph /  6.4 km/h 64 % 0.00 in /  0 mm
22:44 53.9 °F /  12.2 °C 42.0 °F /  5.6 °C 30.02 in /  1016.5 hPa SSW 3.5 mph /  5.6 km/h 2.1 mph /  3.4 km/h 64 % 0.00 in /  0 mm
22:49 53.8 °F /  12.1 °C 41.9 °F /  5.5 °C 30.02 in /  1016.5 hPa SSW 5.8 mph /  9.3 km/h 3.3 mph /  5.3 km/h 64 % 0.00 in /  0 mm
22:54 53.8 °F /  12.1 °C 42.3 °F /  5.7 °C 30.02 in /  1016.5 hPa SSW 5.0 mph /  8 km/h 4.3 mph /  6.9 km/h 65 % 0.00 in /  0 mm
22:59 53.8 °F /  12.1 °C 42.3 °F /  5.7 °C 30.02 in /  1016.5 hPa SSW 6.9 mph /  11.1 km/h 4.7 mph /  7.6 km/h 65 % 0.00 in /  0 mm
23:04 53.8 °F /  12.1 °C 42.7 °F /  5.9 °C 30.02 in /  1016.5 hPa SSW 3.5 mph /  5.6 km/h 3.0 mph /  4.8 km/h 66 % 0.00 in /  0 mm
23:09 53.6 °F /  12 °C 42.5 °F /  5.8 °C 30.02 in /  1016.5 hPa SSW 4.6 mph /  7.4 km/h 4.0 mph /  6.4 km/h 66 % 0.00 in /  0 mm
23:14 53.5 °F /  11.9 °C 42.8 °F /  6 °C 30.02 in /  1016.5 hPa SSW 3.5 mph /  5.6 km/h 2.0 mph /  3.2 km/h 67 % 0.00 in /  0 mm
23:19 53.2 °F /  11.8 °C 42.5 °F /  5.8 °C 30.02 in /  1016.5 hPa SSW 4.6 mph /  7.4 km/h 2.7 mph /  4.3 km/h 67 % 0.00 in /  0 mm
23:24 53.0 °F /  11.7 °C 42.7 °F /  5.9 °C 30.02 in /  1016.5 hPa SSW 3.5 mph /  5.6 km/h 1.7 mph /  2.7 km/h 68 % 0.00 in /  0 mm
23:29 52.8 °F /  11.6 °C 42.5 °F /  5.8 °C 30.02 in /  1016.5 hPa SSW 3.0 mph /  4.8 km/h 1.7 mph /  2.7 km/h 68 % 0.00 in /  0 mm
23:34 52.6 °F /  11.4 °C 42.3 °F /  5.7 °C 30.02 in /  1016.5 hPa SSW 3.5 mph /  5.6 km/h 1.7 mph /  2.7 km/h 68 % 0.00 in /  0 mm
23:39 52.4 °F /  11.3 °C 42.5 °F /  5.8 °C 30.02 in /  1016.5 hPa SSW 3.5 mph /  5.6 km/h 2.5 mph /  4 km/h 69 % 0.00 in /  0 mm
23:44 52.2 °F /  11.2 °C 42.3 °F /  5.7 °C 30.02 in /  1016.5 hPa SSW 4.6 mph /  7.4 km/h 2.3 mph /  3.7 km/h 69 % 0.00 in /  0 mm
23:49 52.0 °F /  11.1 °C 42.1 °F /  5.6 °C 30.02 in /  1016.5 hPa SSW 1.2 mph /  1.9 km/h 0.1 mph /  0.2 km/h 69 % 0.00 in /  0 mm
23:54 51.8 °F /  11 °C 41.9 °F /  5.5 °C 30.02 in /  1016.5 hPa SSW 2.3 mph /  3.7 km/h 1.3 mph /  2.1 km/h 69 % 0.00 in /  0 mm
23:59 51.5 °F /  10.8 °C 41.7 °F /  5.4 °C 30.03 in /  1016.8 hPa SSW 2.3 mph /  3.7 km/h 0.8 mph /  1.3 km/h 69 % 0.00 in /  0 mm
Ararat Weather
Compliments of Weather Underground - 2.5 mb
Click here to send mail.


ABOUT

Live weather data from Ararat, Victoria, Australia, 3377
Data uploaded from Cumulus every 5 minutes to Weather Underground.
This site then downloads the raw data for formatting and display.
Metric and imperial data can be displayed. Graphs and historical data available.
Includes Sun and Moon times and rain image live from BOM.

Check out Ararat Weather on Facebook, Twitter and Google +

Help support ongoing costs by checking out the ads





Follow @AraratWeather